createdAt,value
2023-03-02T00:02:16.158Z,21.23
2023-03-02T00:07:38.309Z,21.57
2023-03-02T00:13:00.580Z,21.67
2023-03-02T00:18:22.457Z,21.43
2023-03-02T00:23:45.071Z,21.50
2023-03-02T00:29:06.651Z,21.43
2023-03-02T00:34:28.251Z,21.23
2023-03-02T00:39:52.786Z,21.97
2023-03-02T00:45:14.080Z,22.20
2023-03-02T00:50:41.280Z,21.30
2023-03-02T00:56:03.953Z,21.50
2023-03-02T01:01:27.887Z,22.20
2023-03-02T01:06:49.646Z,18.60
2023-03-02T01:12:12.567Z,20.17
2023-03-02T01:17:34.389Z,21.43
2023-03-02T01:22:56.252Z,20.43
2023-03-02T01:28:17.555Z,19.77
2023-03-02T01:33:39.282Z,20.77
2023-03-02T01:39:01.101Z,19.07
2023-03-02T01:44:41.495Z,20.27
2023-03-02T01:50:03.121Z,20.87
2023-03-02T01:55:32.611Z,20.00
2023-03-02T02:00:56.620Z,19.87
2023-03-02T02:06:33.861Z,18.93
2023-03-02T02:11:55.725Z,20.73
2023-03-02T02:17:19.191Z,19.67
2023-03-02T02:22:58.748Z,19.53
2023-03-02T02:28:29.134Z,20.17
2023-03-02T02:33:56.802Z,21.33
2023-03-02T02:39:41.783Z,19.53
2023-03-02T02:45:07.433Z,19.13
2023-03-02T02:50:35.345Z,20.77
2023-03-02T02:56:00.093Z,18.77
2023-03-02T03:01:26.407Z,19.57
2023-03-02T03:06:53.867Z,19.70
2023-03-02T03:12:20.616Z,19.33
2023-03-02T03:17:47.435Z,19.47
2023-03-02T03:23:08.820Z,20.50
2023-03-02T03:28:33.704Z,19.53
2023-03-02T03:34:00.873Z,19.33
2023-03-02T03:39:26.378Z,19.80
2023-03-02T03:44:48.195Z,20.80
2023-03-02T03:50:10.635Z,19.80
2023-03-02T03:55:32.813Z,18.83
2023-03-02T04:00:54.475Z,19.10
2023-03-02T04:06:19.101Z,18.70
2023-03-02T04:11:43.362Z,19.43
2023-03-02T04:17:07.289Z,18.87
2023-03-02T04:22:32.406Z,19.43
2023-03-02T04:27:54.580Z,19.23
2023-03-02T04:33:18.890Z,18.83
2023-03-02T04:38:40.376Z,18.73
2023-03-02T04:44:02.339Z,18.03
2023-03-02T04:49:24.451Z,18.07
2023-03-02T04:54:46.037Z,18.17
2023-03-02T05:00:10.042Z,17.40
2023-03-02T05:05:32.283Z,18.10
2023-03-02T05:10:54.163Z,19.27
2023-03-02T05:16:16.204Z,18.10
2023-03-02T05:21:38.550Z,19.23
2023-03-02T05:27:00.218Z,17.43
2023-03-02T05:32:21.774Z,17.83
2023-03-02T05:37:44.907Z,18.67
2023-03-02T05:43:07.143Z,18.17
2023-03-02T05:48:29.913Z,19.00
2023-03-02T05:53:51.898Z,17.87
2023-03-02T05:59:13.543Z,16.50
2023-03-02T06:04:35.272Z,16.67
2023-03-02T06:09:57.474Z,16.80
2023-03-02T06:15:19.672Z,17.87
2023-03-02T06:20:42.138Z,17.77
2023-03-02T06:26:12.910Z,18.27
2023-03-02T06:31:35.495Z,17.97
2023-03-02T06:36:57.385Z,17.23
2023-03-02T06:42:18.837Z,19.27
2023-03-02T06:47:40.796Z,18.10
2023-03-02T06:53:02.366Z,18.93
2023-03-02T06:58:23.922Z,18.20
2023-03-02T07:03:45.975Z,19.37
2023-03-02T07:09:07.519Z,20.87
2023-03-02T07:14:29.056Z,21.33
2023-03-02T07:19:50.724Z,21.90
2023-03-02T07:25:13.238Z,21.73
2023-03-02T07:30:34.906Z,22.53
2023-03-02T07:35:56.507Z,24.67
2023-03-02T07:41:18.304Z,25.50
2023-03-02T07:46:40.061Z,25.10
2023-03-02T07:52:02.388Z,25.53
2023-03-02T07:57:24.116Z,25.90
2023-03-02T08:02:45.806Z,25.40
2023-03-02T08:08:07.549Z,23.97
2023-03-02T08:13:29.097Z,26.20
2023-03-02T08:18:51.058Z,26.50
2023-03-02T08:24:13.170Z,27.93
2023-03-02T08:29:34.881Z,28.57
2023-03-02T08:34:56.405Z,27.47
2023-03-02T08:40:18.015Z,27.60
2023-03-02T08:45:39.810Z,25.27
2023-03-02T08:51:07.947Z,23.47
2023-03-02T08:56:33.240Z,22.07
2023-03-02T09:01:55.462Z,20.03
2023-03-02T09:07:17.583Z,19.77
2023-03-02T09:12:39.260Z,18.77
2023-03-02T09:18:01.061Z,19.17
2023-03-02T09:23:23.450Z,18.00
2023-03-02T09:28:45.079Z,17.20
2023-03-02T09:34:06.943Z,17.50
2023-03-02T09:39:28.680Z,16.07
2023-03-02T09:45:10.303Z,17.37
2023-03-02T09:50:36.151Z,18.00
2023-03-02T09:56:00.531Z,16.63
2023-03-02T10:01:40.702Z,17.50
2023-03-02T10:07:35.402Z,16.70
2023-03-02T10:13:13.457Z,16.07
2023-03-02T10:18:50.100Z,18.40
2023-03-02T10:24:39.759Z,16.47
2023-03-02T10:30:03.224Z,17.17
2023-03-02T10:35:27.455Z,18.00
2023-03-02T10:40:57.080Z,17.07
2023-03-02T10:46:18.787Z,15.77
2023-03-02T10:51:40.499Z,16.90
2023-03-02T10:57:04.796Z,16.73
2023-03-02T11:02:28.488Z,16.67
2023-03-02T11:07:57.767Z,18.17
2023-03-02T11:13:28.277Z,18.93
2023-03-02T11:19:26.294Z,18.97
2023-03-02T11:24:53.972Z,16.63
2023-03-02T11:30:24.915Z,19.63
2023-03-02T11:35:58.495Z,18.50
2023-03-02T11:41:36.748Z,20.37
2023-03-02T11:47:02.053Z,20.10
2023-03-02T11:52:27.519Z,15.03
2023-03-02T11:57:53.632Z,19.30
2023-03-02T12:03:18.245Z,19.03
2023-03-02T12:08:46.523Z,18.73
2023-03-02T12:14:27.097Z,19.87
2023-03-02T12:19:50.435Z,20.27
2023-03-02T12:25:41.873Z,19.30
2023-03-02T12:31:07.024Z,19.07
2023-03-02T12:36:35.842Z,20.23
2023-03-02T12:42:31.326Z,18.40
2023-03-02T12:48:18.428Z,19.47
2023-03-02T12:53:41.337Z,20.93
2023-03-02T12:59:02.556Z,20.53
2023-03-02T13:04:26.804Z,18.03
2023-03-02T13:09:56.884Z,19.17
2023-03-02T13:15:18.916Z,17.80
2023-03-02T13:20:43.325Z,16.90
2023-03-02T13:26:06.641Z,16.17
2023-03-02T13:31:28.941Z,15.73
2023-03-02T13:36:51.518Z,15.43
2023-03-02T13:42:35.691Z,14.60
2023-03-02T13:47:59.300Z,14.30
2023-03-02T13:53:21.432Z,13.50
2023-03-02T13:58:42.950Z,12.90
2023-03-02T14:04:04.929Z,11.60
2023-03-02T14:09:27.492Z,11.57
2023-03-02T14:14:49.249Z,10.70
2023-03-02T14:20:14.393Z,9.73
2023-03-02T14:25:36.315Z,8.87
2023-03-02T14:30:59.496Z,7.47
2023-03-02T14:36:30.042Z,7.33
2023-03-02T14:41:54.383Z,7.33
2023-03-02T14:47:19.586Z,8.53
2023-03-02T14:52:56.853Z,9.33
2023-03-02T14:58:25.913Z,9.60
2023-03-02T15:03:47.932Z,9.33
2023-03-02T15:09:11.099Z,9.63
2023-03-02T15:14:32.622Z,9.10
2023-03-02T15:19:54.486Z,8.90
2023-03-02T15:25:16.128Z,7.87
2023-03-02T15:30:37.813Z,8.00
2023-03-02T15:36:00.249Z,8.03
2023-03-02T15:41:22.109Z,8.07
2023-03-02T15:46:43.827Z,8.70
2023-03-02T15:52:05.547Z,9.20
2023-03-02T15:57:27.262Z,9.63
2023-03-02T16:02:50.291Z,9.97
2023-03-02T16:08:12.073Z,10.63
2023-03-02T16:13:34.025Z,9.67
2023-03-02T16:18:57.525Z,10.03
2023-03-02T16:24:19.231Z,11.10
2023-03-02T16:29:41.042Z,10.93
2023-03-02T16:35:02.676Z,11.80
2023-03-02T16:40:24.775Z,11.90
2023-03-02T16:45:47.050Z,10.53
2023-03-02T16:51:09.702Z,10.83
2023-03-02T16:56:31.766Z,10.93
2023-03-02T17:01:53.556Z,11.57
2023-03-02T17:07:15.277Z,10.83
2023-03-02T17:12:36.963Z,12.20
2023-03-02T17:17:58.873Z,24.70
2023-03-02T17:23:20.430Z,14.10
2023-03-02T17:28:41.979Z,12.97
2023-03-02T17:34:03.769Z,12.97
2023-03-02T17:39:25.902Z,13.43
2023-03-02T17:44:49.482Z,12.27
2023-03-02T17:50:12.752Z,13.43
2023-03-02T17:55:34.735Z,12.40
2023-03-02T18:00:56.573Z,12.90
2023-03-02T18:06:20.713Z,12.67
2023-03-02T18:11:42.700Z,13.80
2023-03-02T18:17:07.653Z,15.10
2023-03-02T18:22:29.300Z,15.30
2023-03-02T18:27:50.917Z,14.83
2023-03-02T18:33:12.512Z,16.73
2023-03-02T18:38:35.754Z,15.80
2023-03-02T18:43:57.418Z,15.67
2023-03-02T18:49:19.188Z,16.63
2023-03-02T18:54:40.898Z,17.40
2023-03-02T19:00:06.721Z,17.73
2023-03-02T19:05:29.813Z,20.80
2023-03-02T19:10:56.549Z,20.33
2023-03-02T19:16:18.713Z,20.10
2023-03-02T19:21:40.530Z,18.90
2023-03-02T19:27:02.920Z,19.47
2023-03-02T19:32:25.011Z,19.50
2023-03-02T19:37:47.340Z,19.13
2023-03-02T19:43:09.148Z,18.63
2023-03-02T19:48:30.920Z,18.73
2023-03-02T19:53:52.290Z,20.37
2023-03-02T19:59:13.916Z,20.30
2023-03-02T20:04:35.849Z,17.87
2023-03-02T20:09:57.412Z,18.57
2023-03-02T20:15:18.921Z,18.17
2023-03-02T20:20:41.406Z,17.70
2023-03-02T20:26:04.954Z,17.27
2023-03-02T20:31:28.065Z,18.07
2023-03-02T20:36:51.417Z,17.47
2023-03-02T20:42:13.870Z,17.10
2023-03-02T20:47:36.163Z,16.67
2023-03-02T20:52:58.602Z,16.23
2023-03-02T20:58:19.982Z,15.63
2023-03-02T21:03:41.967Z,16.47
2023-03-02T21:09:06.125Z,17.07
2023-03-02T21:14:28.594Z,17.73
2023-03-02T21:19:50.120Z,20.33
2023-03-02T21:25:12.078Z,21.00
2023-03-02T21:30:35.046Z,19.17
2023-03-02T21:35:56.720Z,19.80
2023-03-02T21:41:19.073Z,18.77
2023-03-02T21:46:41.122Z,18.10
2023-03-02T21:52:08.030Z,18.80
2023-03-02T21:57:29.844Z,20.33
2023-03-02T22:02:52.209Z,20.63
2023-03-02T22:08:18.875Z,20.47
2023-03-02T22:13:40.677Z,21.27
2023-03-02T22:19:08.024Z,19.67
2023-03-02T22:24:32.102Z,20.13
2023-03-02T22:29:56.792Z,20.77
2023-03-02T22:35:25.567Z,20.00
2023-03-02T22:40:47.634Z,20.20
2023-03-02T22:46:15.906Z,20.27
2023-03-02T22:51:37.629Z,20.23
2023-03-02T22:56:59.333Z,19.67
2023-03-02T23:02:25.303Z,20.53
2023-03-02T23:07:46.676Z,20.80
2023-03-02T23:13:11.453Z,21.77
2023-03-02T23:18:34.017Z,20.93
2023-03-02T23:23:56.105Z,21.97
2023-03-02T23:29:19.001Z,22.27
2023-03-02T23:34:40.645Z,20.83
2023-03-02T23:40:02.133Z,21.80
2023-03-02T23:45:24.008Z,21.67
2023-03-02T23:50:46.024Z,21.90
2023-03-02T23:56:07.782Z,21.77
